Time;durP1;ratioP1;P1;durP2;ratioP2;P2;SDS_P1;SDS_P2;PMS_P1;PMS_P2;Temp;Humidity;BMP_temperature;BMP_pressure;BME280_temperature;BME280_humidity;BME280_pressure;Samples;Min_cycle;Max_cycle;Signal;HPM_P1;HPM_P2
2023/09/17 00:00:31;;;;;;;9.00;8.10;;;16.10;99.90;;;;;;5040072;28;20273;-54
2023/09/17 00:02:58;;;;;;;8.90;8.00;;;16.10;99.90;;;;;;5075060;28;20271;-53
2023/09/17 00:05:25;;;;;;;8.97;8.07;;;16.10;99.90;;;;;;5079879;28;20221;-51
2023/09/17 00:07:52;;;;;;;8.80;8.10;;;16.00;99.90;;;;;;5078431;28;20626;-55
2023/09/17 00:10:19;;;;;;;8.53;7.73;;;15.90;99.90;;;;;;5079667;28;20340;-54
2023/09/17 00:12:45;;;;;;;9.00;8.07;;;15.80;99.90;;;;;;5081823;28;20239;-52
2023/09/17 00:15:13;;;;;;;8.03;7.33;;;15.80;99.90;;;;;;5046264;28;21079;-55
2023/09/17 00:17:41;;;;;;;10.43;7.77;;;15.80;99.90;;;;;;5081330;28;20749;-55
2023/09/17 00:20:11;;;;;;;9.00;8.07;;;15.80;99.90;;;;;;5071530;28;20255;-52
2023/09/17 00:22:38;;;;;;;9.37;8.37;;;15.70;99.90;;;;;;5082691;28;20194;-54
2023/09/17 00:25:06;;;;;;;8.90;8.00;;;15.80;99.90;;;;;;5078436;28;20905;-53
2023/09/17 00:27:33;;;;;;;9.20;8.30;;;15.80;99.90;;;;;;5081751;28;20247;-57
2023/09/17 00:30:03;;;;;;;9.40;8.50;;;15.80;99.90;;;;;;5050790;28;20359;-51
2023/09/17 00:32:29;;;;;;;8.43;7.60;;;15.80;99.90;;;;;;5081883;28;20678;-58
2023/09/17 00:34:58;;;;;;;9.50;8.60;;;15.70;99.90;;;;;;5073741;28;20214;-53
2023/09/17 00:37:25;;;;;;;8.33;7.63;;;15.70;99.90;;;;;;5076539;28;20202;-53
2023/09/17 00:39:52;;;;;;;9.53;8.60;;;15.60;99.90;;;;;;5080396;28;20194;-52
2023/09/17 00:42:19;;;;;;;9.20;7.90;;;15.50;99.90;;;;;;5079111;28;20332;-55
2023/09/17 00:44:46;;;;;;;11.63;8.47;;;15.50;99.90;;;;;;5074690;28;20724;-64
2023/09/17 00:47:14;;;;;;;9.47;8.57;;;15.60;99.90;;;;;;5060204;28;20209;-46
2023/09/17 00:49:41;;;;;;;9.03;8.13;;;15.50;99.90;;;;;;5081871;28;20221;-50
2023/09/17 00:52:17;;;;;;;9.90;8.43;;;15.40;99.90;;;;;;5070613;28;20193;-46
2023/09/17 00:54:45;;;;;;;9.40;8.50;;;15.40;99.90;;;;;;5080451;28;20221;-47
2023/09/17 00:57:15;;;;;;;9.60;8.67;;;15.30;99.90;;;;;;5076744;28;20255;-47
2023/09/17 00:59:44;;;;;;;9.40;8.20;;;15.40;99.90;;;;;;5080007;28;20232;-57
2023/09/17 01:02:12;;;;;;;9.23;8.37;;;15.40;99.90;;;;;;5044844;28;20205;-48
2023/09/17 01:04:41;;;;;;;8.67;7.93;;;15.50;99.90;;;;;;5081467;28;20214;-51
2023/09/17 01:07:10;;;;;;;9.27;8.37;;;15.50;99.90;;;;;;5065589;28;20241;-51
2023/09/17 01:09:38;;;;;;;9.00;8.20;;;15.50;99.90;;;;;;5079315;28;20204;-56
2023/09/17 01:12:06;;;;;;;9.40;8.60;;;15.60;99.90;;;;;;5075988;28;20791;-54
2023/09/17 01:14:34;;;;;;;8.87;7.97;;;15.60;99.90;;;;;;5069117;28;20672;-51
2023/09/17 01:17:03;;;;;;;8.13;7.33;;;15.50;99.90;;;;;;5043355;28;20210;-56
2023/09/17 01:19:32;;;;;;;9.60;8.60;;;15.50;99.90;;;;;;5079363;28;20255;-55
2023/09/17 01:22:06;;;;;;;9.73;8.73;;;15.40;99.90;;;;;;5067796;28;20825;-56
2023/09/17 01:24:41;;;;;;;8.23;7.43;;;15.40;99.90;;;;;;5071295;28;20241;-55
2023/09/17 01:27:12;;;;;;;8.97;8.07;;;15.40;99.90;;;;;;5079902;28;20205;-48
2023/09/17 01:29:42;;;;;;;9.43;8.60;;;15.40;99.90;;;;;;5083066;28;20276;-51
2023/09/17 01:32:11;;;;;;;9.13;8.23;;;15.40;99.90;;;;;;5052842;28;25720;-50
2023/09/17 01:34:40;;;;;;;9.57;8.30;;;15.20;99.90;;;;;;5081659;28;20825;-52
2023/09/17 01:37:12;;;;;;;8.93;8.13;;;15.10;99.90;;;;;;5081440;28;20210;-50
2023/09/17 01:39:42;;;;;;;8.60;7.90;;;15.00;99.90;;;;;;5070731;28;20305;-55
2023/09/17 01:42:12;;;;;;;10.97;9.33;;;15.00;99.90;;;;;;5083609;28;20189;-52
2023/09/17 01:44:41;;;;;;;9.77;8.80;;;15.00;99.90;;;;;;5070204;28;20263;-55
2023/09/17 01:47:08;;;;;;;9.33;8.47;;;15.10;99.90;;;;;;5083392;28;20217;-52
2023/09/17 01:49:37;;;;;;;10.43;9.40;;;14.90;99.90;;;;;;5051351;28;20202;-60
2023/09/17 01:52:05;;;;;;;9.53;8.70;;;14.90;99.90;;;;;;5082343;28;20193;-51
2023/09/17 01:54:33;;;;;;;9.27;8.37;;;15.00;99.90;;;;;;5073058;28;20213;-48
2023/09/17 01:57:00;;;;;;;8.80;8.07;;;15.00;99.90;;;;;;5082385;28;21012;-49
2023/09/17 01:59:28;;;;;;;10.53;8.93;;;15.10;99.90;;;;;;5081158;28;20750;-47
2023/09/17 02:01:55;;;;;;;9.83;8.90;;;15.10;99.90;;;;;;5079729;28;20186;-54
2023/09/17 02:04:22;;;;;;;8.90;8.10;;;15.10;99.90;;;;;;5051319;28;20241;-58
2023/09/17 02:06:53;;;;;;;10.13;8.30;;;15.00;99.90;;;;;;5079199;28;20188;-53
2023/09/17 02:09:20;;;;;;;9.27;8.47;;;15.00;99.90;;;;;;5081957;28;20260;-49
2023/09/17 02:11:48;;;;;;;9.60;8.23;;;15.10;99.90;;;;;;5071394;28;20266;-55
2023/09/17 02:14:15;;;;;;;9.40;8.50;;;15.10;99.90;;;;;;5083904;28;20241;-52
2023/09/17 02:16:43;;;;;;;9.47;8.67;;;15.10;99.90;;;;;;5080501;28;20196;-51
2023/09/17 02:19:10;;;;;;;9.90;8.90;;;15.00;99.90;;;;;;5083955;28;20243;-48
2023/09/17 02:21:37;;;;;;;9.90;8.97;;;15.00;99.90;;;;;;5055454;28;20212;-62
2023/09/17 02:24:04;;;;;;;10.27;8.70;;;15.00;99.90;;;;;;5084323;28;20190;-55
2023/09/17 02:26:31;;;;;;;9.63;8.83;;;14.90;99.90;;;;;;5072709;28;20242;-62
2023/09/17 02:28:58;;;;;;;9.53;8.60;;;14.80;99.90;;;;;;5081729;28;20870;-50
2023/09/17 02:31:27;;;;;;;9.50;8.53;;;14.80;99.90;;;;;;5082038;28;20274;-53
2023/09/17 02:33:56;;;;;;;10.70;8.67;;;14.90;99.90;;;;;;5080926;28;20186;-57
2023/09/17 02:36:23;;;;;;;8.83;8.00;;;14.80;99.90;;;;;;5049931;28;20229;-56
2023/09/17 02:38:50;;;;;;;9.37;8.63;;;14.90;99.90;;;;;;5074710;28;20993;-53
2023/09/17 02:41:17;;;;;;;13.23;9.37;;;15.00;99.90;;;;;;5081795;28;20251;-53
2023/09/17 02:43:44;;;;;;;9.87;8.97;;;15.10;99.90;;;;;;5069037;28;20198;-55
2023/09/17 02:46:11;;;;;;;10.23;9.20;;;15.00;99.90;;;;;;5070254;28;20224;-52
2023/09/17 02:48:40;;;;;;;10.27;9.33;;;15.00;99.90;;;;;;5083163;28;20236;-54
2023/09/17 02:51:08;;;;;;;9.97;9.07;;;15.00;99.90;;;;;;5042424;28;20215;-51
2023/09/17 02:53:35;;;;;;;9.07;8.17;;;15.00;99.90;;;;;;5080665;28;20636;-51
2023/09/17 02:56:04;;;;;;;9.83;8.93;;;14.90;99.90;;;;;;5081919;28;20283;-50
2023/09/17 02:58:31;;;;;;;10.37;8.07;;;14.80;99.90;;;;;;5065558;28;20212;-47
2023/09/17 03:00:58;;;;;;;8.93;8.23;;;14.80;99.90;;;;;;5081373;28;20205;-61
2023/09/17 03:03:24;;;;;;;8.63;7.73;;;14.80;99.90;;;;;;5078498;28;20190;-51
2023/09/17 03:05:53;;;;;;;9.03;8.23;;;14.90;99.90;;;;;;5052509;28;20221;-47
2023/09/17 03:08:22;;;;;;;11.50;8.30;;;14.90;99.90;;;;;;5077661;28;21074;-48
2023/09/17 03:10:58;;;;;;;8.87;8.17;;;14.80;99.90;;;;;;5081902;28;20277;-49
2023/09/17 03:13:25;;;;;;;8.47;7.77;;;14.70;99.90;;;;;;5085442;28;20216;-58
2023/09/17 03:15:56;;;;;;;9.07;8.17;;;14.60;99.90;;;;;;5081688;28;20924;-53
2023/09/17 03:18:23;;;;;;;9.13;8.33;;;14.70;99.90;;;;;;5077266;28;20212;-51
2023/09/17 03:20:52;;;;;;;9.43;7.77;;;14.70;99.90;;;;;;5081574;28;20239;-49
2023/09/17 03:23:21;;;;;;;8.67;7.80;;;14.80;99.90;;;;;;5038514;28;20277;-50
2023/09/17 03:25:48;;;;;;;10.73;9.00;;;14.70;99.90;;;;;;5082777;28;20687;-55
2023/09/17 03:28:15;;;;;;;9.23;8.47;;;14.80;99.90;;;;;;5066957;28;20238;-50
2023/09/17 03:30:43;;;;;;;8.53;7.73;;;14.80;99.90;;;;;;5094390;28;20641;-55
2023/09/17 03:33:10;;;;;;;10.43;7.90;;;14.80;99.90;;;;;;5078426;28;20222;-48
2023/09/17 03:35:44;;;;;;;9.73;8.77;;;14.80;99.90;;;;;;5077329;28;20707;-57
2023/09/17 03:38:11;;;;;;;9.13;8.10;;;14.70;99.90;;;;;;5046532;28;20293;-60
2023/09/17 03:40:40;;;;;;;8.00;7.20;;;14.70;99.90;;;;;;5073571;28;20989;-45
2023/09/17 03:43:08;;;;;;;9.17;8.27;;;14.70;99.90;;;;;;5074179;28;20202;-62
2023/09/17 03:45:35;;;;;;;8.87;8.10;;;14.80;99.90;;;;;;5072361;28;20301;-63
2023/09/17 03:48:04;;;;;;;8.17;7.33;;;14.70;99.90;;;;;;5076166;28;20213;-48
2023/09/17 03:50:32;;;;;;;8.93;8.03;;;14.70;99.90;;;;;;5079802;28;20190;-51
2023/09/17 03:53:03;;;;;;;8.07;7.37;;;14.60;99.90;;;;;;5042063;28;20222;-57
2023/09/17 03:55:30;;;;;;;8.60;7.80;;;14.60;99.90;;;;;;5099612;27;20245;-52
2023/09/17 03:57:58;;;;;;;7.80;7.20;;;14.60;99.90;;;;;;5077354;28;20213;-54
2023/09/17 04:00:29;;;;;;;9.23;8.33;;;14.70;99.90;;;;;;5085900;28;20204;-51
2023/09/17 04:02:57;;;;;;;8.27;7.57;;;14.70;99.90;;;;;;5077879;28;20277;-56
2023/09/17 04:05:24;;;;;;;8.43;7.60;;;14.70;99.90;;;;;;5080177;28;20268;-58
2023/09/17 04:07:51;;;;;;;8.40;7.70;;;14.70;99.90;;;;;;5044003;28;20225;-57
2023/09/17 04:10:19;;;;;;;8.40;7.60;;;14.60;99.90;;;;;;5080534;28;20247;-57
2023/09/17 04:12:47;;;;;;;9.37;8.37;;;14.50;99.90;;;;;;5076529;28;20198;-54
2023/09/17 04:15:19;;;;;;;8.70;7.90;;;14.50;99.90;;;;;;5069401;28;20680;-51
2023/09/17 04:17:46;;;;;;;9.07;8.20;;;14.50;99.90;;;;;;5079181;28;20236;-49
2023/09/17 04:20:14;;;;;;;8.90;7.37;;;14.40;99.90;;;;;;5080170;28;20198;-50
2023/09/17 04:22:42;;;;;;;8.47;7.67;;;14.40;99.90;;;;;;5077136;28;20194;-51
2023/09/17 04:25:10;;;;;;;8.77;7.90;;;14.40;99.90;;;;;;5048312;28;20677;-50
2023/09/17 04:27:41;;;;;;;8.73;7.93;;;14.50;99.90;;;;;;5077346;28;20770;-55
2023/09/17 04:30:09;;;;;;;9.43;7.97;;;14.50;99.90;;;;;;5080001;28;20687;-49
2023/09/17 04:32:38;;;;;;;8.13;7.40;;;14.50;99.90;;;;;;5069971;28;20202;-52
2023/09/17 04:35:07;;;;;;;7.80;7.10;;;14.50;99.90;;;;;;5078854;28;20217;-50
2023/09/17 04:37:34;;;;;;;8.50;7.77;;;14.50;99.90;;;;;;5075679;28;20231;-54
2023/09/17 04:40:01;;;;;;;9.07;8.00;;;14.40;99.90;;;;;;5044052;28;20210;-53
2023/09/17 04:42:31;;;;;;;8.40;7.63;;;14.40;99.90;;;;;;5079936;28;20208;-61
2023/09/17 04:44:57;;;;;;;8.17;7.37;;;14.40;99.90;;;;;;5079091;28;20213;-45
2023/09/17 04:47:25;;;;;;;8.23;7.50;;;14.40;99.90;;;;;;5070897;28;20608;-50
2023/09/17 04:49:53;;;;;;;7.80;7.20;;;14.40;99.90;;;;;;5076560;28;20174;-48
2023/09/17 04:52:20;;;;;;;7.47;6.63;;;14.40;99.90;;;;;;5075315;28;20281;-45
2023/09/17 04:54:46;;;;;;;7.67;6.97;;;14.30;99.90;;;;;;5048526;28;20217;-59
2023/09/17 04:57:13;;;;;;;7.87;7.20;;;14.30;99.90;;;;;;5079707;28;20544;-49
2023/09/17 04:59:40;;;;;;;7.70;7.07;;;14.30;99.90;;;;;;5075795;28;20201;-59
2023/09/17 05:02:07;;;;;;;8.23;7.43;;;14.30;99.90;;;;;;5072022;28;20213;-51
2023/09/17 05:04:34;;;;;;;8.27;7.47;;;14.30;99.90;;;;;;5082418;28;20240;-54
2023/09/17 05:07:03;;;;;;;8.27;7.43;;;14.40;99.90;;;;;;5078440;28;20466;-52
2023/09/17 05:09:30;;;;;;;8.20;7.43;;;14.30;99.90;;;;;;5068314;28;20221;-57
2023/09/17 05:11:57;;;;;;;9.00;8.00;;;14.30;99.90;;;;;;5053058;28;20251;-52
2023/09/17 05:14:24;;;;;;;8.33;7.63;;;14.30;99.90;;;;;;5070862;28;20885;-48
2023/09/17 05:16:51;;;;;;;8.47;7.77;;;14.10;99.90;;;;;;5081609;28;20612;-52
2023/09/17 05:19:18;;;;;;;7.60;6.60;;;14.10;99.90;;;;;;5071144;28;20588;-50
2023/09/17 05:21:45;;;;;;;8.73;7.87;;;14.00;99.90;;;;;;5072081;28;20206;-53
2023/09/17 05:24:13;;;;;;;8.53;7.73;;;13.90;99.90;;;;;;5071870;28;20198;-56
2023/09/17 05:26:40;;;;;;;8.97;8.07;;;13.90;99.90;;;;;;5050939;28;20230;-53
2023/09/17 05:29:10;;;;;;;8.30;7.53;;;13.80;99.90;;;;;;5074787;28;20261;-53
2023/09/17 05:31:37;;;;;;;8.20;7.60;;;13.80;99.90;;;;;;5080134;28;20289;-49
2023/09/17 05:34:04;;;;;;;8.03;7.33;;;13.80;99.90;;;;;;5066274;28;20210;-50
2023/09/17 05:36:31;;;;;;;8.27;7.57;;;13.80;99.90;;;;;;5081982;28;20194;-59
2023/09/17 05:38:58;;;;;;;8.30;7.57;;;13.80;99.90;;;;;;5070569;28;20194;-52
2023/09/17 05:41:26;;;;;;;8.10;7.33;;;13.80;99.90;;;;;;5033739;28;20213;-54
2023/09/17 05:43:53;;;;;;;7.43;6.83;;;13.80;99.90;;;;;;5071207;28;20194;-51
2023/09/17 05:46:20;;;;;;;8.27;7.67;;;13.90;99.90;;;;;;5082091;28;20263;-52
2023/09/17 05:48:47;;;;;;;9.47;8.47;;;13.90;99.90;;;;;;5067011;28;20233;-49
2023/09/17 05:51:14;;;;;;;8.07;7.20;;;14.00;99.90;;;;;;5082151;28;20248;-56
2023/09/17 05:53:41;;;;;;;8.40;7.60;;;14.00;99.90;;;;;;5071768;28;20598;-50
2023/09/17 05:56:08;;;;;;;11.33;8.57;;;14.00;99.90;;;;;;5080669;28;20889;-49
2023/09/17 05:58:36;;;;;;;9.30;8.53;;;14.00;99.90;;;;;;5044190;28;20197;-63
2023/09/17 06:01:05;;;;;;;9.57;8.43;;;14.10;99.90;;;;;;5072221;28;20201;-55
2023/09/17 06:03:32;;;;;;;9.23;8.43;;;14.10;99.90;;;;;;5079944;28;20263;-64
2023/09/17 06:05:59;;;;;;;9.23;8.40;;;14.10;99.90;;;;;;5088571;28;20210;-51
2023/09/17 06:08:28;;;;;;;12.50;9.00;;;14.20;99.90;;;;;;5095898;28;20214;-48
2023/09/17 06:10:55;;;;;;;8.93;8.23;;;14.20;99.90;;;;;;5070009;28;20190;-50
2023/09/17 06:13:22;;;;;;;9.97;9.07;;;14.20;99.90;;;;;;5048456;28;20211;-52
2023/09/17 06:15:50;;;;;;;7.93;7.33;;;14.30;99.90;;;;;;5067694;28;20292;-60
2023/09/17 06:18:18;;;;;;;8.63;7.93;;;14.30;99.90;;;;;;5082996;28;20559;-46
2023/09/17 06:20:46;;;;;;;9.17;8.37;;;14.40;99.90;;;;;;5086060;28;20208;-62
2023/09/17 06:23:12;;;;;;;10.57;9.40;;;14.40;99.90;;;;;;5080632;28;20723;-50
2023/09/17 06:25:39;;;;;;;10.13;9.23;;;14.40;99.90;;;;;;5071489;28;20217;-59
2023/09/17 06:28:06;;;;;;;8.60;7.90;;;14.50;99.90;;;;;;5079111;28;20907;-49
2023/09/17 06:30:34;;;;;;;8.93;8.20;;;14.60;99.90;;;;;;5052348;28;20287;-63
2023/09/17 06:33:03;;;;;;;9.57;8.67;;;14.60;99.90;;;;;;5071679;28;20198;-51
2023/09/17 06:35:30;;;;;;;9.70;8.70;;;14.60;99.90;;;;;;5069121;28;20230;-59
2023/09/17 06:37:58;;;;;;;8.77;8.07;;;14.60;99.90;;;;;;5079070;28;20189;-49
2023/09/17 06:40:24;;;;;;;8.60;7.77;;;14.70;99.90;;;;;;5073746;28;20987;-51
2023/09/17 06:42:51;;;;;;;8.43;7.67;;;14.70;99.90;;;;;;5077893;28;20183;-56
2023/09/17 06:45:18;;;;;;;8.33;7.53;;;14.80;99.90;;;;;;5048464;28;20218;-45
2023/09/17 06:47:45;;;;;;;9.37;8.57;;;14.80;99.90;;;;;;5070272;28;20202;-59
2023/09/17 06:50:14;;;;;;;8.70;7.93;;;14.90;99.90;;;;;;5070681;28;20237;-47
2023/09/17 06:52:41;;;;;;;8.00;7.30;;;14.90;99.90;;;;;;5079595;28;20197;-60
2023/09/17 06:55:08;;;;;;;8.53;7.83;;;15.00;99.90;;;;;;5080159;28;20217;-54
2023/09/17 06:57:34;;;;;;;7.97;7.37;;;15.10;99.90;;;;;;5072499;28;20259;-61
2023/09/17 07:00:01;;;;;;;8.63;7.90;;;15.20;99.90;;;;;;5079445;28;20186;-45
2023/09/17 07:02:28;;;;;;;8.80;8.00;;;15.20;99.90;;;;;;5045739;28;20210;-52
2023/09/17 07:04:56;;;;;;;8.97;8.17;;;15.30;99.90;;;;;;5078454;28;20210;-53
2023/09/17 07:07:24;;;;;;;9.40;8.60;;;15.40;99.90;;;;;;5071416;28;20262;-51
2023/09/17 07:09:52;;;;;;;9.53;8.57;;;15.40;99.90;;;;;;5077157;28;20240;-50
2023/09/17 07:12:19;;;;;;;10.20;9.20;;;15.60;99.90;;;;;;5074668;28;20202;-48
2023/09/17 07:14:46;;;;;;;9.23;8.40;;;15.70;99.90;;;;;;5077737;28;20338;-58
2023/09/17 07:17:13;;;;;;;10.07;9.27;;;15.80;99.90;;;;;;5052962;28;20229;-53
2023/09/17 07:19:40;;;;;;;10.30;9.40;;;15.80;99.90;;;;;;5070914;28;20205;-61
2023/09/17 07:22:11;;;;;;;10.13;9.13;;;15.90;99.90;;;;;;5070356;28;20988;-56
2023/09/17 07:24:41;;;;;;;9.47;8.57;;;16.00;99.90;;;;;;5068129;28;20244;-54
2023/09/17 07:27:08;;;;;;;9.00;8.20;;;16.10;99.90;;;;;;5067750;28;20325;-47
2023/09/17 07:29:34;;;;;;;9.80;8.80;;;16.20;99.90;;;;;;5077831;28;20214;-61
2023/09/17 07:32:01;;;;;;;9.40;8.60;;;16.30;99.90;;;;;;5051117;28;21741;-49
2023/09/17 07:34:29;;;;;;;8.93;8.03;;;16.50;99.90;;;;;;5074075;28;20363;-45
2023/09/17 07:36:56;;;;;;;9.47;8.57;;;16.50;99.90;;;;;;5077110;28;20190;-52
2023/09/17 07:39:23;;;;;;;9.87;8.97;;;16.60;99.90;;;;;;5071922;28;20206;-52
2023/09/17 07:41:51;;;;;;;8.37;7.50;;;16.80;99.90;;;;;;5074189;28;20197;-47
2023/09/17 07:44:18;;;;;;;9.87;7.60;;;16.90;99.90;;;;;;5072042;28;20668;-45
2023/09/17 07:46:45;;;;;;;7.73;7.13;;;17.00;99.90;;;;;;5053348;28;20244;-64
2023/09/17 07:49:12;;;;;;;7.97;7.13;;;17.10;99.90;;;;;;5067652;28;20225;-51
2023/09/17 07:51:39;;;;;;;8.27;7.67;;;17.20;99.90;;;;;;5070066;28;20209;-62
2023/09/17 07:54:06;;;;;;;7.33;6.70;;;17.30;99.90;;;;;;5069017;28;20206;-47
2023/09/17 07:56:32;;;;;;;6.73;6.17;;;17.40;99.90;;;;;;5080080;28;20616;-61
2023/09/17 07:59:01;;;;;;;10.03;7.60;;;17.50;99.90;;;;;;5069845;28;20648;-52
2023/09/17 08:01:28;;;;;;;7.83;7.20;;;17.70;99.90;;;;;;5080359;28;20220;-49
2023/09/17 08:03:54;;;;;;;7.43;6.30;;;17.80;99.90;;;;;;5045874;28;20478;-47
2023/09/17 08:06:25;;;;;;;6.97;6.47;;;17.90;99.90;;;;;;5072615;28;20582;-48
2023/09/17 08:08:52;;;;;;;7.20;6.60;;;18.00;99.90;;;;;;5066541;28;20222;-48
2023/09/17 08:11:19;;;;;;;6.60;6.00;;;18.10;99.90;;;;;;5080877;28;20221;-56
2023/09/17 08:13:47;;;;;;;7.40;6.77;;;18.20;99.90;;;;;;5074948;28;20206;-61
2023/09/17 08:16:16;;;;;;;6.83;6.23;;;18.30;99.90;;;;;;5072218;28;20700;-48
2023/09/17 08:18:43;;;;;;;7.33;6.73;;;18.40;99.90;;;;;;5056762;28;20953;-62
2023/09/17 08:21:11;;;;;;;7.30;6.70;;;18.50;99.90;;;;;;5058905;28;20719;-60
2023/09/17 08:23:38;;;;;;;8.87;6.87;;;18.60;99.90;;;;;;5078975;28;20198;-52
2023/09/17 08:26:05;;;;;;;7.03;6.33;;;18.80;99.90;;;;;;5062571;28;20221;-58
2023/09/17 08:28:32;;;;;;;7.10;6.57;;;18.90;99.90;;;;;;5078477;28;20193;-52
2023/09/17 08:30:59;;;;;;;5.90;5.40;;;19.00;99.90;;;;;;5071137;28;20260;-58
2023/09/17 08:33:28;;;;;;;6.10;5.60;;;19.10;99.90;;;;;;5077327;28;20223;-64
2023/09/17 08:35:54;;;;;;;6.27;5.67;;;19.20;99.90;;;;;;5053412;28;20286;-55
2023/09/17 08:38:22;;;;;;;6.60;5.90;;;19.40;99.90;;;;;;5077259;28;20256;-48
2023/09/17 08:40:50;;;;;;;6.10;5.60;;;19.50;99.90;;;;;;5060812;28;20202;-62
2023/09/17 08:43:17;;;;;;;6.93;5.57;;;19.70;99.90;;;;;;5081241;28;20190;-50
2023/09/17 08:45:44;;;;;;;7.20;5.30;;;19.80;99.90;;;;;;5070659;28;20212;-54
2023/09/17 08:48:13;;;;;;;5.87;5.43;;;20.00;99.90;;;;;;5079495;28;20276;-50
2023/09/17 08:50:42;;;;;;;6.37;5.77;;;20.10;99.90;;;;;;5047878;28;20549;-50
2023/09/17 08:53:13;;;;;;;5.13;4.73;;;20.20;99.90;;;;;;5080066;28;20189;-48
2023/09/17 08:55:40;;;;;;;8.13;5.43;;;20.40;99.90;;;;;;5074152;28;20213;-52
2023/09/17 08:58:12;;;;;;;6.00;5.40;;;20.50;99.90;;;;;;5075355;28;20202;-50
2023/09/17 09:00:42;;;;;;;5.23;4.83;;;20.50;99.90;;;;;;5078685;28;20202;-53
2023/09/17 09:03:11;;;;;;;5.50;5.13;;;20.60;99.90;;;;;;5070995;28;20194;-49
2023/09/17 09:05:39;;;;;;;5.97;5.40;;;20.60;99.90;;;;;;5042351;28;20226;-49
2023/09/17 09:08:09;;;;;;;5.63;5.17;;;20.80;99.90;;;;;;5079746;28;20227;-47
2023/09/17 09:10:36;;;;;;;4.97;4.60;;;20.90;99.90;;;;;;5079704;28;20746;-50
2023/09/17 09:13:03;;;;;;;5.20;4.80;;;21.00;99.90;;;;;;5069451;28;20210;-52
2023/09/17 09:15:30;;;;;;;5.67;5.17;;;21.00;99.90;;;;;;5080974;28;20229;-50
2023/09/17 09:17:57;;;;;;;5.70;5.20;;;21.10;99.90;;;;;;5066870;28;20206;-51
2023/09/17 09:20:24;;;;;;;5.33;5.00;;;21.10;99.90;;;;;;5064124;28;20202;-50
2023/09/17 09:22:51;;;;;;;5.13;4.63;;;21.20;99.90;;;;;;5058431;28;20874;-53
2023/09/17 09:25:19;;;;;;;5.15;4.75;;;21.20;99.90;;;;;;5072020;28;20226;-53
2023/09/17 09:27:46;;;;;;;5.10;4.70;;;21.30;99.90;;;;;;5059454;28;20279;-52
2023/09/17 09:30:15;;;;;;;5.70;5.30;;;21.30;99.90;;;;;;5079589;28;20222;-54
2023/09/17 09:32:42;;;;;;;5.63;5.23;;;21.30;99.90;;;;;;5076037;28;20782;-51
2023/09/17 09:35:09;;;;;;;5.45;5.05;;;21.30;99.90;;;;;;5071929;28;20253;-48
2023/09/17 09:37:37;;;;;;;5.80;4.97;;;21.30;99.90;;;;;;5040985;28;20206;-47
2023/09/17 09:40:04;;;;;;;4.90;4.50;;;21.30;99.90;;;;;;5079527;28;20282;-53
2023/09/17 09:42:33;;;;;;;6.37;5.90;;;21.40;99.90;;;;;;5063680;28;20186;-51
2023/09/17 09:45:00;;;;;;;5.68;5.28;;;21.60;99.90;;;;;;5071440;28;20226;-49
2023/09/17 09:47:27;;;;;;;6.13;4.72;;;21.70;99.90;;;;;;5078850;28;20190;-48
2023/09/17 09:49:54;;;;;;;5.80;5.40;;;21.70;99.90;;;;;;5066069;28;20259;-50
2023/09/17 09:52:23;;;;;;;5.05;4.65;;;21.80;99.90;;;;;;5052830;28;20255;-48
2023/09/17 09:54:49;;;;;;;6.35;5.85;;;21.80;99.90;;;;;;5081042;28;20218;-53
2023/09/17 09:57:18;;;;;;;5.78;5.28;;;21.70;99.90;;;;;;5075403;28;20204;-50
2023/09/17 09:59:48;;;;;;;5.63;5.18;;;21.70;99.90;;;;;;5064093;28;20822;-49
2023/09/17 10:02:16;;;;;;;6.03;5.53;;;21.70;99.90;;;;;;5084973;28;20210;-50
2023/09/17 10:04:44;;;;;;;5.97;5.57;;;21.80;99.90;;;;;;5070795;28;20252;-53
2023/09/17 10:07:11;;;;;;;5.82;5.35;;;21.90;99.90;;;;;;5083763;28;20209;-48
2023/09/17 10:09:38;;;;;;;6.85;5.28;;;21.90;99.90;;;;;;5049608;28;20210;-49
2023/09/17 10:12:06;;;;;;;6.13;5.63;;;21.90;99.90;;;;;;5074750;28;20206;-49
2023/09/17 10:14:37;;;;;;;5.72;5.32;;;21.90;99.90;;;;;;5072669;28;20777;-51
2023/09/17 10:17:07;;;;;;;5.72;5.30;;;21.90;99.90;;;;;;5084341;28;20204;-48
2023/09/17 10:19:35;;;;;;;5.97;5.47;;;21.90;99.90;;;;;;5081183;28;20213;-51
2023/09/17 10:22:03;;;;;;;5.30;5.00;;;22.00;99.90;;;;;;5070878;28;20206;-51
2023/09/17 10:24:32;;;;;;;6.90;5.03;;;22.00;99.90;;;;;;5051191;28;20274;-50
2023/09/17 10:27:00;;;;;;;5.15;4.75;;;22.00;99.90;;;;;;5071374;28;20311;-54
2023/09/17 10:29:28;;;;;;;5.80;5.20;;;22.00;99.90;;;;;;5078566;28;20198;-49
2023/09/17 10:31:56;;;;;;;5.00;4.60;;;22.10;99.90;;;;;;5077053;28;21011;-49
2023/09/17 10:34:25;;;;;;;4.72;4.43;;;22.10;99.90;;;;;;5083722;28;20255;-49
2023/09/17 10:36:54;;;;;;;4.80;4.40;;;22.20;99.90;;;;;;5071771;28;20267;-50
2023/09/17 10:39:22;;;;;;;4.80;4.45;;;22.30;99.90;;;;;;5047514;28;20357;-50
2023/09/17 10:41:50;;;;;;;5.07;4.65;;;22.40;99.90;;;;;;5080444;28;20190;-50
2023/09/17 10:44:21;;;;;;;4.90;4.25;;;22.50;99.90;;;;;;5074388;28;20206;-50
2023/09/17 10:46:49;;;;;;;5.35;4.90;;;22.50;99.90;;;;;;5069318;28;20934;-50
2023/09/17 10:49:17;;;;;;;4.28;3.97;;;22.70;99.90;;;;;;5082924;28;20197;-53
2023/09/17 10:51:47;;;;;;;4.50;4.13;;;22.90;99.90;;;;;;5070793;28;20217;-54
2023/09/17 10:54:14;;;;;;;4.55;4.25;;;23.00;99.90;;;;;;5042632;28;20225;-51
2023/09/17 10:56:45;;;;;;;4.05;3.75;;;23.10;99.90;;;;;;5078349;28;21658;-50
2023/09/17 10:59:13;;;;;;;4.25;4.00;;;23.20;99.90;;;;;;5060330;28;20514;-49
2023/09/17 11:01:42;;;;;;;4.30;3.97;;;23.30;99.90;;;;;;5071357;28;20690;-47
2023/09/17 11:04:15;;;;;;;4.50;4.10;;;23.40;99.90;;;;;;5069190;28;20243;-48
2023/09/17 11:06:47;;;;;;;4.63;4.22;;;23.50;99.90;;;;;;5073882;28;20201;-46
2023/09/17 11:09:16;;;;;;;4.47;4.18;;;23.60;99.90;;;;;;5048096;28;22674;-46
2023/09/17 11:11:44;;;;;;;4.72;4.20;;;23.70;99.90;;;;;;5082692;28;20679;-51
2023/09/17 11:14:13;;;;;;;5.90;4.03;;;23.90;99.90;;;;;;5073631;28;20930;-52
2023/09/17 11:16:41;;;;;;;4.05;3.80;;;23.90;99.90;;;;;;5073196;28;20205;-48
2023/09/17 11:19:11;;;;;;;3.90;3.60;;;24.00;99.90;;;;;;5070577;28;20196;-52
2023/09/17 11:21:40;;;;;;;3.60;3.30;;;24.00;99.90;;;;;;5068915;28;20190;-52
2023/09/17 11:24:10;;;;;;;4.47;3.65;;;24.00;99.90;;;;;;5082295;28;20197;-52
2023/09/17 11:26:39;;;;;;;4.18;3.78;;;24.00;99.90;;;;;;5037465;28;20198;-50
2023/09/17 11:29:08;;;;;;;3.90;3.60;;;24.10;99.90;;;;;;5083046;28;20676;-46
2023/09/17 11:31:36;;;;;;;4.40;4.00;;;24.10;99.90;;;;;;5070041;28;20346;-47
2023/09/17 11:34:08;;;;;;;3.88;3.58;;;24.20;99.90;;;;;;5069079;28;20716;-49
2023/09/17 11:36:35;;;;;;;4.68;3.83;;;24.20;99.90;;;;;;5078352;28;20224;-46
2023/09/17 11:39:06;;;;;;;3.65;3.35;;;24.20;99.90;;;;;;5082347;28;20231;-49
2023/09/17 11:41:35;;;;;;;4.00;3.70;;;24.30;99.90;;;;;;5044842;28;20304;-46
2023/09/17 11:44:04;;;;;;;4.03;3.83;;;24.30;99.90;;;;;;5073522;28;20202;-53
2023/09/17 11:46:34;;;;;;;3.80;3.50;;;24.40;99.90;;;;;;5071393;28;20200;-52
2023/09/17 11:49:01;;;;;;;4.03;3.75;;;24.50;99.90;;;;;;5072148;28;20536;-51
2023/09/17 11:51:29;;;;;;;3.33;3.13;;;24.60;99.90;;;;;;5079554;28;20652;-47
2023/09/17 11:53:58;;;;;;;3.28;3.08;;;24.60;99.90;;;;;;5070245;28;20641;-47
2023/09/17 11:56:26;;;;;;;4.00;3.70;;;;;;;;;;5059590;28;20229;-50
2023/09/17 11:59:01;;;;;;;4.10;3.78;;;24.70;99.90;;;;;;5065308;28;20209;-49
2023/09/17 12:01:32;;;;;;;3.85;3.55;;;24.90;99.90;;;;;;5079345;28;20189;-48
2023/09/17 12:04:00;;;;;;;3.75;3.55;;;25.00;99.90;;;;;;5057882;28;20323;-47
2023/09/17 12:06:28;;;;;;;3.50;3.08;;;25.10;99.90;;;;;;5082234;28;20263;-51
2023/09/17 12:08:59;;;;;;;3.72;3.42;;;25.10;99.90;;;;;;5078388;28;20205;-49
2023/09/17 12:11:27;;;;;;;3.22;3.03;;;25.10;99.90;;;;;;5082170;28;20317;-50
2023/09/17 12:13:56;;;;;;;3.70;3.45;;;25.10;99.90;;;;;;5034064;28;20210;-50
2023/09/17 12:16:24;;;;;;;3.60;3.25;;;25.00;99.90;;;;;;5077323;28;20696;-49
2023/09/17 12:18:54;;;;;;;4.13;3.70;;;24.90;99.90;;;;;;5069032;28;20225;-46
2023/09/17 12:21:22;;;;;;;3.45;3.25;;;24.80;99.90;;;;;;5072672;28;20752;-49
2023/09/17 12:23:56;;;;;;;4.00;3.38;;;24.70;99.90;;;;;;5079592;28;20282;-49
2023/09/17 12:26:25;;;;;;;3.92;3.72;;;24.70;99.90;;;;;;5075596;28;20237;-48
2023/09/17 12:28:52;;;;;;;3.40;3.20;;;24.60;99.90;;;;;;5045430;28;20209;-48
2023/09/17 12:31:20;;;;;;;4.97;3.13;;;24.70;99.90;;;;;;5071764;28;20304;-48
2023/09/17 12:33:47;;;;;;;4.70;3.30;;;24.60;99.90;;;;;;5058692;28;20202;-54
2023/09/17 12:36:16;;;;;;;3.95;3.25;;;24.60;99.90;;;;;;5075936;28;20711;-48
2023/09/17 12:38:43;;;;;;;3.63;3.42;;;24.60;99.90;;;;;;5077497;28;20197;-51
2023/09/17 12:41:11;;;;;;;4.60;3.88;;;24.50;99.90;;;;;;5081340;28;20198;-50
2023/09/17 12:43:37;;;;;;;3.58;3.28;;;24.50;99.90;;;;;;5047987;28;20202;-47
2023/09/17 12:46:06;;;;;;;3.70;3.42;;;24.50;99.90;;;;;;5067371;28;20302;-53
2023/09/17 12:48:34;;;;;;;3.08;2.88;;;24.50;99.90;;;;;;5070972;28;20206;-50